createdAt,value
2023-04-08T00:02:06.167Z,98452.94
2023-04-08T00:05:10.665Z,98456.47
2023-04-08T00:08:13.462Z,98452.97
2023-04-08T00:11:16.196Z,98455.97
2023-04-08T00:14:18.977Z,98458.88
2023-04-08T00:17:21.881Z,98459.97
2023-04-08T00:20:26.336Z,98451.94
2023-04-08T00:23:29.065Z,98456.47
2023-04-08T00:26:32.077Z,98454.34
2023-04-08T00:29:35.034Z,98456.47
2023-04-08T00:32:37.943Z,98450.03
2023-04-08T00:35:42.096Z,98459.41
2023-04-08T00:38:45.083Z,98460.16
2023-04-08T00:41:47.893Z,98463.34
2023-04-08T00:44:50.983Z,98463.66
2023-04-08T00:47:53.717Z,98466.91
2023-04-08T00:50:57.933Z,98470.66
2023-04-08T00:54:01.539Z,98473.06
2023-04-08T00:57:05.255Z,98475.00
2023-04-08T01:00:09.780Z,98465.31
2023-04-08T01:03:18.856Z,98470.97
2023-04-08T01:06:31.420Z,98476.31
2023-04-08T01:09:39.203Z,98468.81
2023-04-08T01:12:49.513Z,98469.03
2023-04-08T01:15:52.859Z,98478.16
2023-04-08T01:18:57.469Z,98466.84
2023-04-08T01:22:11.259Z,98466.00
2023-04-08T01:25:20.059Z,98466.50
2023-04-08T01:28:28.084Z,98472.19
2023-04-08T01:31:32.864Z,98465.75
2023-04-08T01:34:36.710Z,98473.78
2023-04-08T01:37:40.684Z,98465.25
2023-04-08T01:40:44.138Z,98466.81
2023-04-08T01:43:49.747Z,98460.38
2023-04-08T01:46:54.370Z,98457.69
2023-04-08T01:49:58.918Z,98460.88
2023-04-08T01:53:03.315Z,98466.00
2023-04-08T01:56:10.399Z,98461.97
2023-04-08T01:59:17.096Z,98463.81
2023-04-08T02:02:22.915Z,98465.94
2023-04-08T02:05:25.934Z,98465.69
2023-04-08T02:08:28.884Z,98462.78
2023-04-08T02:11:31.773Z,98467.31
2023-04-08T02:14:36.237Z,98473.00
2023-04-08T02:17:45.425Z,98468.91
2023-04-08T02:20:54.678Z,98468.13
2023-04-08T02:24:01.216Z,98466.78
2023-04-08T02:27:06.059Z,98468.88
2023-04-08T02:30:12.919Z,98476.09
2023-04-08T02:33:16.406Z,98476.09
2023-04-08T02:36:19.432Z,98473.63
2023-04-08T02:39:22.278Z,98470.09
2023-04-08T02:42:25.660Z,98474.63
2023-04-08T02:45:32.520Z,98474.00
2023-04-08T02:48:35.387Z,98476.16
2023-04-08T02:51:38.242Z,98463.34
2023-04-08T02:54:41.117Z,98469.75
2023-04-08T02:57:44.357Z,98475.00
2023-04-08T03:00:48.876Z,98465.38
2023-04-08T03:03:51.853Z,98474.50
2023-04-08T03:06:54.738Z,98469.47
2023-04-08T03:09:57.539Z,98474.03
2023-04-08T03:13:00.354Z,98471.66
2023-04-08T03:16:04.689Z,98471.94
2023-04-08T03:19:07.512Z,98467.59
2023-04-08T03:22:10.819Z,98471.22
2023-04-08T03:25:13.792Z,98469.34
2023-04-08T03:28:16.615Z,98474.69
2023-04-08T03:31:21.260Z,98469.75
2023-04-08T03:34:24.569Z,98478.81
2023-04-08T03:37:27.343Z,98475.59
2023-04-08T03:40:30.792Z,98482.78
2023-04-08T03:43:34.142Z,98479.09
2023-04-08T03:46:39.568Z,98487.41
2023-04-08T03:49:42.326Z,98481.31
2023-04-08T03:52:45.029Z,98485.88
2023-04-08T03:55:50.583Z,98492.00
2023-04-08T03:58:53.362Z,98486.91
2023-04-08T04:01:57.794Z,98478.13
2023-04-08T04:05:00.966Z,98482.72
2023-04-08T04:08:03.756Z,98482.75
2023-04-08T04:11:06.572Z,98489.19
2023-04-08T04:14:09.232Z,98480.34
2023-04-08T04:17:13.623Z,98491.31
2023-04-08T04:20:16.631Z,98484.59
2023-04-08T04:23:19.559Z,98480.88
2023-04-08T04:26:22.269Z,98474.97
2023-04-08T04:29:25.300Z,98473.91
2023-04-08T04:32:29.482Z,98478.16
2023-04-08T04:35:32.259Z,98484.28
2023-04-08T04:38:34.923Z,98477.28
2023-04-08T04:41:40.607Z,98482.31
2023-04-08T04:44:44.593Z,98488.63
2023-04-08T04:47:48.922Z,98485.31
2023-04-08T04:50:56.388Z,98484.13
2023-04-08T04:53:59.100Z,98492.69
2023-04-08T04:57:01.900Z,98493.41
2023-04-08T05:00:05.938Z,98497.09
2023-04-08T05:03:10.492Z,98500.56
2023-04-08T05:06:13.564Z,98518.16
2023-04-08T05:09:16.759Z,98506.09
2023-04-08T05:12:20.690Z,98513.78
2023-04-08T05:15:23.692Z,98518.56
2023-04-08T05:18:27.971Z,98513.44
2023-04-08T05:21:30.762Z,98514.44
2023-04-08T05:24:33.637Z,98524.47
2023-04-08T05:27:36.663Z,98527.59
2023-04-08T05:30:39.465Z,98534.78
2023-04-08T05:33:43.671Z,98533.66
2023-04-08T05:36:46.471Z,98529.81
2023-04-08T05:39:49.287Z,98542.97
2023-04-08T05:42:52.082Z,98546.84
2023-04-08T05:45:54.842Z,98541.16
2023-04-08T05:48:58.964Z,98547.72
2023-04-08T05:52:01.939Z,98554.22
2023-04-08T05:55:05.181Z,98541.19
2023-04-08T05:58:08.042Z,98547.56
2023-04-08T06:01:10.835Z,98550.91
2023-04-08T06:04:15.042Z,98551.06
2023-04-08T06:07:17.869Z,98558.13
2023-04-08T06:10:20.599Z,98553.97
2023-04-08T06:13:25.519Z,98553.00
2023-04-08T06:16:28.578Z,98559.19
2023-04-08T06:19:32.873Z,98563.25
2023-04-08T06:22:36.001Z,98564.34
2023-04-08T06:25:38.956Z,98567.06
2023-04-08T06:28:41.642Z,98562.53
2023-04-08T06:31:44.527Z,98568.44
2023-04-08T06:34:48.584Z,98572.25
2023-04-08T06:37:51.237Z,98578.97
2023-04-08T06:40:54.111Z,98575.84
2023-04-08T06:43:57.304Z,98578.03
2023-04-08T06:47:00.262Z,98582.88
2023-04-08T06:50:04.529Z,98590.16
2023-04-08T06:53:07.275Z,98591.00
2023-04-08T06:56:09.913Z,98589.91
2023-04-08T06:59:12.711Z,98595.78
2023-04-08T07:02:15.997Z,98589.41
2023-04-08T07:05:20.081Z,98601.22
2023-04-08T07:08:22.780Z,98595.34
2023-04-08T07:11:25.850Z,98602.09
2023-04-08T07:14:29.812Z,98595.78
2023-04-08T07:17:32.731Z,98597.47
2023-04-08T07:20:38.514Z,98606.88
2023-04-08T07:23:41.499Z,98605.31
2023-04-08T07:26:44.217Z,98616.81
2023-04-08T07:29:47.062Z,98612.25
2023-04-08T07:32:49.994Z,98599.16
2023-04-08T07:35:54.254Z,98606.13
2023-04-08T07:38:56.980Z,98608.06
2023-04-08T07:41:59.759Z,98609.50
2023-04-08T07:45:02.584Z,98607.69
2023-04-08T07:48:05.940Z,98614.75
2023-04-08T07:51:11.707Z,98610.75
2023-04-08T07:54:17.310Z,98616.16
2023-04-08T07:57:20.058Z,98612.63
2023-04-08T08:00:23.183Z,98620.16
2023-04-08T08:03:26.076Z,98624.44
2023-04-08T08:06:32.269Z,98622.03
2023-04-08T08:09:35.328Z,98628.22
2023-04-08T08:12:38.171Z,98622.84
2023-04-08T08:15:40.991Z,98629.84
2023-04-08T08:18:43.719Z,98628.25
2023-04-08T08:21:47.915Z,98632.06
2023-04-08T08:24:50.547Z,98632.06
2023-04-08T08:27:53.349Z,98640.13
2023-04-08T08:30:56.460Z,98633.69
2023-04-08T08:33:59.448Z,98639.34
2023-04-08T08:37:03.709Z,98631.28
2023-04-08T08:40:07.281Z,98634.50
2023-04-08T08:43:11.024Z,98637.50
2023-04-08T08:46:17.425Z,98638.81
2023-04-08T08:49:20.357Z,98636.69
2023-04-08T08:52:24.456Z,98639.63
2023-04-08T08:55:50.267Z,98636.69
2023-04-08T08:58:50.186Z,98639.63
2023-04-08T09:01:52.965Z,98634.16
2023-04-08T09:05:01.090Z,98653.53
2023-04-08T09:08:05.480Z,98654.28
2023-04-08T09:11:16.958Z,98651.81
2023-04-08T09:14:21.078Z,98657.94
2023-04-08T09:17:34.126Z,98660.38
2023-04-08T09:20:36.808Z,98653.66
2023-04-08T09:23:43.005Z,98655.56
2023-04-08T09:26:48.043Z,98653.41
2023-04-08T09:29:50.714Z,98655.25
2023-04-08T09:32:54.922Z,98646.31
2023-04-08T09:35:58.418Z,98654.34
2023-04-08T09:39:02.612Z,98652.75
2023-04-08T09:42:11.765Z,98659.50
2023-04-08T09:45:14.981Z,98651.19
2023-04-08T09:48:21.871Z,98650.16
2023-04-08T09:51:25.448Z,98659.28
2023-04-08T09:54:37.024Z,98657.09
2023-04-08T09:57:43.445Z,98657.41
2023-04-08T10:00:51.043Z,98658.34
2023-04-08T10:03:57.138Z,98656.06
2023-04-08T10:07:06.262Z,98653.28
2023-04-08T10:10:12.522Z,98657.78
2023-04-08T10:13:16.430Z,98659.56
2023-04-08T10:16:24.869Z,98661.22
2023-04-08T10:19:40.734Z,98662.44
2023-04-08T10:22:50.110Z,98650.34
2023-04-08T10:25:54.447Z,98652.38
2023-04-08T10:28:57.141Z,98650.03
2023-04-08T10:32:00.329Z,98652.53
2023-04-08T10:35:04.266Z,98657.50
2023-04-08T10:38:08.515Z,98660.25
2023-04-08T10:41:14.254Z,98650.66
2023-04-08T10:44:17.915Z,98651.22
2023-04-08T10:47:28.565Z,98655.03
2023-04-08T10:50:32.396Z,98654.28
2023-04-08T10:53:37.135Z,98659.44
2023-04-08T10:56:47.775Z,98654.09
2023-04-08T10:59:50.800Z,98658.94
2023-04-08T11:02:54.699Z,98650.84
2023-04-08T11:05:59.446Z,98653.03
2023-04-08T11:09:04.393Z,98655.19
2023-04-08T11:12:09.203Z,98653.84
2023-04-08T11:15:14.474Z,98654.41
2023-04-08T11:18:18.054Z,98658.97
2023-04-08T11:21:22.354Z,98654.13
2023-04-08T11:24:25.207Z,98650.06
2023-04-08T11:27:29.602Z,98649.00
2023-04-08T11:30:32.773Z,98652.47
2023-04-08T11:33:36.327Z,98648.69
2023-04-08T11:36:41.901Z,98646.00
2023-04-08T11:39:45.311Z,98651.38
2023-04-08T11:42:50.180Z,98645.22
2023-04-08T11:45:53.328Z,98646.28
2023-04-08T11:49:01.163Z,98639.03
2023-04-08T11:52:03.816Z,98640.38
2023-04-08T11:55:07.357Z,98649.28
2023-04-08T11:58:11.634Z,98642.03
2023-04-08T12:01:14.427Z,98645.25
2023-04-08T12:04:17.184Z,98644.44
2023-04-08T12:07:20.142Z,98647.69
2023-04-08T12:10:25.176Z,98650.06
2023-04-08T12:13:29.263Z,98640.94
2023-04-08T12:16:32.116Z,98648.47
2023-04-08T12:19:36.424Z,98649.81
2023-04-08T12:22:41.210Z,98651.97
2023-04-08T12:25:44.706Z,98651.44
2023-04-08T12:28:48.791Z,98658.69
2023-04-08T12:31:51.743Z,98669.44
2023-04-08T12:34:54.539Z,98653.59
2023-04-08T12:37:57.222Z,98660.56
2023-04-08T12:41:00.012Z,98661.91
2023-04-08T12:44:04.094Z,98659.75
2023-04-08T12:47:07.147Z,98657.06
2023-04-08T12:50:11.130Z,98656.53
2023-04-08T12:53:13.998Z,98651.97
2023-04-08T12:56:16.741Z,98655.50
2023-04-08T12:59:20.868Z,98655.50
2023-04-08T13:02:25.609Z,98647.44
2023-04-08T13:05:41.988Z,98646.63
2023-04-08T13:08:45.772Z,98647.94
2023-04-08T13:11:48.443Z,98655.47
2023-04-08T13:14:52.895Z,98650.91
2023-04-08T13:17:56.087Z,98651.97
2023-04-08T13:20:59.434Z,98647.09
2023-04-08T13:24:02.460Z,98651.38
2023-04-08T13:27:05.304Z,98646.28
2023-04-08T13:30:11.090Z,98648.44
2023-04-08T13:33:13.750Z,98648.41
2023-04-08T13:36:16.491Z,98646.78
2023-04-08T13:39:19.334Z,98644.66
2023-04-08T13:42:22.037Z,98650.31
2023-04-08T13:45:26.571Z,98654.91
2023-04-08T13:48:29.222Z,98646.59
2023-04-08T13:51:31.967Z,98648.22
2023-04-08T13:54:34.926Z,98651.16
2023-04-08T13:57:37.832Z,98642.78
2023-04-08T14:00:42.001Z,98640.91
2023-04-08T14:03:44.782Z,98647.88
2023-04-08T14:06:47.696Z,98645.69
2023-04-08T14:09:50.534Z,98641.63
2023-04-08T14:12:53.154Z,98641.31
2023-04-08T14:15:58.551Z,98649.59
2023-04-08T14:19:01.231Z,98649.00
2023-04-08T14:22:04.365Z,98643.03
2023-04-08T14:25:07.517Z,98641.47
2023-04-08T14:28:10.417Z,98641.97
2023-04-08T14:31:14.713Z,98644.91
2023-04-08T14:34:17.477Z,98644.69
2023-04-08T14:37:20.515Z,98643.88
2023-04-08T14:40:23.673Z,98651.94
2023-04-08T14:43:26.516Z,98652.47
2023-04-08T14:46:30.761Z,98652.47
2023-04-08T14:49:33.636Z,98655.22
2023-04-08T14:52:36.455Z,98653.91
2023-04-08T14:55:39.825Z,98652.56
2023-04-08T14:58:42.547Z,98657.97
2023-04-08T15:01:47.049Z,98664.78
2023-04-08T15:04:50.097Z,98659.94
2023-04-08T15:07:52.783Z,98667.50
2023-04-08T15:10:55.706Z,98664.81
2023-04-08T15:13:58.503Z,98662.16
2023-04-08T15:17:02.730Z,98667.78
2023-04-08T15:20:06.481Z,98666.97
2023-04-08T15:23:09.176Z,98673.41
2023-04-08T15:26:12.121Z,98670.19
2023-04-08T15:29:14.936Z,98675.03
2023-04-08T15:32:19.114Z,98671.31
2023-04-08T15:35:21.909Z,98675.09
2023-04-08T15:38:24.757Z,98685.03
2023-04-08T15:41:27.497Z,98676.72
2023-04-08T15:44:32.761Z,98668.66
2023-04-08T15:47:36.842Z,98676.97
2023-04-08T15:50:39.683Z,98674.03
2023-04-08T15:53:42.623Z,98681.56
2023-04-08T15:56:46.596Z,98679.94
2023-04-08T15:59:49.569Z,98685.31
2023-04-08T16:02:54.198Z,98686.13
2023-04-08T16:05:57.136Z,98691.25
2023-04-08T16:08:59.906Z,98687.75
2023-04-08T16:12:03.020Z,98688.00
2023-04-08T16:15:06.724Z,98693.66
2023-04-08T16:18:11.011Z,98696.88
2023-04-08T16:21:13.823Z,98703.06
2023-04-08T16:24:16.632Z,98703.06
2023-04-08T16:27:19.451Z,98701.72
2023-04-08T16:30:22.307Z,98707.38
2023-04-08T16:33:29.956Z,98703.88
2023-04-08T16:36:33.098Z,98716.22
2023-04-08T16:39:35.950Z,98726.13
2023-04-08T16:42:38.783Z,98720.19
2023-04-08T16:45:41.610Z,98724.19
2023-04-08T16:48:46.351Z,98728.22
2023-04-08T16:51:49.097Z,98728.16
2023-04-08T16:54:52.311Z,98721.75
2023-04-08T16:57:55.119Z,98748.28
2023-04-08T17:00:58.285Z,98742.03
2023-04-08T17:04:02.736Z,98742.03
2023-04-08T17:07:05.705Z,98745.25
2023-04-08T17:10:09.876Z,98750.28
2023-04-08T17:13:14.746Z,98753.75
2023-04-08T17:16:18.804Z,98748.94
2023-04-08T17:19:22.981Z,98754.84
2023-04-08T17:22:25.740Z,98752.66
2023-04-08T17:25:28.536Z,98752.44
2023-04-08T17:28:32.550Z,98756.44
2023-04-08T17:31:36.196Z,98761.25
2023-04-08T17:34:40.940Z,98769.38
2023-04-08T17:37:43.634Z,98762.91
2023-04-08T17:40:46.535Z,98770.88
2023-04-08T17:43:49.492Z,98780.53
2023-04-08T17:46:52.573Z,98774.59
2023-04-08T17:49:57.084Z,98775.41
2023-04-08T17:52:59.871Z,98779.47
2023-04-08T17:56:05.354Z,98784.28
2023-04-08T17:59:08.136Z,98779.94
2023-04-08T18:02:11.079Z,98776.72
2023-04-08T18:05:15.637Z,98785.03
2023-04-08T18:08:19.073Z,98783.41
2023-04-08T18:11:24.231Z,98782.00
2023-04-08T18:14:29.152Z,98789.56
2023-04-08T18:17:31.935Z,98792.00
2023-04-08T18:20:38.367Z,98797.41
2023-04-08T18:23:41.206Z,98804.66
2023-04-08T18:26:45.403Z,98809.72
2023-04-08T18:29:51.046Z,98813.97
2023-04-08T18:32:53.934Z,98816.84
2023-04-08T18:35:59.611Z,98823.53
2023-04-08T18:39:03.111Z,98824.31
2023-04-08T18:42:06.063Z,98824.31
2023-04-08T18:45:09.477Z,98830.72
2023-04-08T18:48:13.268Z,98829.66
2023-04-08T18:51:17.716Z,98831.53
2023-04-08T18:54:21.921Z,98835.81
2023-04-08T18:57:24.943Z,98837.72
2023-04-08T19:00:27.904Z,98845.19
2023-04-08T19:03:31.026Z,98851.63
2023-04-08T19:06:35.920Z,98844.13
2023-04-08T19:09:38.810Z,98849.28
2023-04-08T19:12:41.858Z,98853.63
2023-04-08T19:15:44.619Z,98843.94
2023-04-08T19:18:47.559Z,98852.56
2023-04-08T19:21:52.025Z,98855.53
2023-04-08T19:24:55.282Z,98860.59
2023-04-08T19:27:58.118Z,98856.31
2023-04-08T19:31:01.256Z,98852.25
2023-04-08T19:34:04.086Z,98858.66
2023-04-08T19:37:08.615Z,98859.72
2023-04-08T19:40:11.923Z,98867.97
2023-04-08T19:43:14.773Z,98869.88
2023-04-08T19:46:17.730Z,98870.38
2023-04-08T19:49:21.824Z,98876.19
2023-04-08T19:52:26.616Z,98882.94
2023-04-08T19:55:29.750Z,98884.00
2023-04-08T19:58:32.565Z,98882.19
2023-04-08T20:01:35.854Z,98874.94
2023-04-08T20:04:38.977Z,98874.63
2023-04-08T20:07:43.251Z,98876.50
2023-04-08T20:10:46.550Z,98877.31
2023-04-08T20:13:51.644Z,98881.63
2023-04-08T20:16:54.364Z,98879.97
2023-04-08T20:19:57.211Z,98876.97
2023-04-08T20:23:01.592Z,98887.63
2023-04-08T20:26:04.600Z,98879.84
2023-04-08T20:29:07.568Z,98881.47
2023-04-08T20:32:10.786Z,98887.91
2023-04-08T20:35:13.702Z,98885.19
2023-04-08T20:38:19.501Z,98889.31
2023-04-08T20:41:23.932Z,98889.56
2023-04-08T20:44:26.986Z,98887.31
2023-04-08T20:47:29.723Z,98888.03
2023-04-08T20:50:32.902Z,98890.72
2023-04-08T20:53:37.704Z,98885.94
2023-04-08T20:56:40.610Z,98885.63
2023-04-08T20:59:43.330Z,98885.66
2023-04-08T21:02:47.603Z,98883.22
2023-04-08T21:05:50.772Z,98892.84
2023-04-08T21:08:54.836Z,98885.06
2023-04-08T21:11:57.524Z,98889.03
2023-04-08T21:15:00.278Z,98879.34
2023-04-08T21:18:03.849Z,98882.00
2023-04-08T21:21:06.981Z,98883.81
2023-04-08T21:24:11.374Z,98887.19
2023-04-08T21:27:14.075Z,98883.34
2023-04-08T21:30:18.043Z,98881.81
2023-04-08T21:33:21.049Z,98884.75
2023-04-08T21:36:23.780Z,98884.69
2023-04-08T21:39:27.988Z,98878.97
2023-04-08T21:42:31.221Z,98875.56
2023-04-08T21:45:34.395Z,98874.69
2023-04-08T21:48:37.259Z,98873.81
2023-04-08T21:51:41.019Z,98876.66
2023-04-08T21:54:45.239Z,98876.91
2023-04-08T21:57:48.969Z,98876.53
2023-04-08T22:00:51.660Z,98880.66
2023-04-08T22:03:55.611Z,98879.19
2023-04-08T22:06:58.546Z,98881.94
2023-04-08T22:10:02.730Z,98886.66
2023-04-08T22:13:05.366Z,98883.31
2023-04-08T22:16:10.024Z,98880.00
2023-04-08T22:19:12.740Z,98884.53
2023-04-08T22:22:15.441Z,98877.81
2023-04-08T22:25:19.802Z,98889.31
2023-04-08T22:28:23.288Z,98877.91
2023-04-08T22:31:26.286Z,98879.34
2023-04-08T22:34:29.032Z,98882.75
2023-04-08T22:37:32.627Z,98882.53
2023-04-08T22:40:37.776Z,98881.06
2023-04-08T22:43:40.628Z,98885.84
2023-04-08T22:46:43.387Z,98882.47
2023-04-08T22:49:46.057Z,98882.47
2023-04-08T22:52:48.874Z,98879.81
2023-04-08T22:55:52.971Z,98877.69
2023-04-08T22:58:56.237Z,98879.00
2023-04-08T23:01:59.017Z,98875.53
2023-04-08T23:05:01.857Z,98879.06
2023-04-08T23:08:04.749Z,98883.44
2023-04-08T23:11:09.763Z,98872.09
2023-04-08T23:14:12.509Z,98875.94
2023-04-08T23:17:15.374Z,98874.69
2023-04-08T23:20:18.279Z,98875.94
2023-04-08T23:23:21.507Z,98877.00
2023-04-08T23:26:26.015Z,98878.25
2023-04-08T23:29:29.279Z,98879.53
2023-04-08T23:32:32.348Z,98877.09
2023-04-08T23:35:35.427Z,98881.16
2023-04-08T23:38:38.492Z,98883.25
2023-04-08T23:41:42.600Z,98875.47
2023-04-08T23:44:45.315Z,98883.03
2023-04-08T23:47:48.049Z,98878.94
2023-04-08T23:50:52.119Z,98876.16
2023-04-08T23:53:54.860Z,98882.19
2023-04-08T23:56:58.866Z,98885.34
